sensor_id;sensor_type;location;lat;lon;timestamp;P1;durP1;ratioP1;P2;durP2;ratioP2
34673;SDS011;20879;55.668;37.858;2023-08-12T00:00:15;12.27;;;9.80;;
34673;SDS011;20879;55.668;37.858;2023-08-12T00:02:46;13.40;;;10.18;;
34673;SDS011;20879;55.668;37.858;2023-08-12T00:05:17;13.48;;;10.52;;
34673;SDS011;20879;55.668;37.858;2023-08-12T00:07:54;12.40;;;9.70;;
34673;SDS011;20879;55.668;37.858;2023-08-12T00:10:31;19.05;;;9.95;;
34673;SDS011;20879;55.668;37.858;2023-08-12T00:13:05;12.43;;;9.77;;
34673;SDS011;20879;55.668;37.858;2023-08-12T00:15:35;16.85;;;9.98;;
34673;SDS011;20879;55.668;37.858;2023-08-12T00:18:12;11.02;;;8.82;;
34673;SDS011;20879;55.668;37.858;2023-08-12T00:20:42;12.88;;;9.98;;
34673;SDS011;20879;55.668;37.858;2023-08-12T00:23:19;14.95;;;9.85;;
34673;SDS011;20879;55.668;37.858;2023-08-12T00:25:49;11.95;;;9.85;;
34673;SDS011;20879;55.668;37.858;2023-08-12T00:28:24;14.98;;;9.98;;
34673;SDS011;20879;55.668;37.858;2023-08-12T00:31:02;16.45;;;10.85;;
34673;SDS011;20879;55.668;37.858;2023-08-12T00:33:33;15.75;;;10.75;;
34673;SDS011;20879;55.668;37.858;2023-08-12T00:36:07;18.45;;;11.70;;
34673;SDS011;20879;55.668;37.858;2023-08-12T00:38:41;17.33;;;10.88;;
34673;SDS011;20879;55.668;37.858;2023-08-12T00:41:20;16.67;;;11.75;;
34673;SDS011;20879;55.668;37.858;2023-08-12T00:43:52;17.02;;;11.30;;
34673;SDS011;20879;55.668;37.858;2023-08-12T00:46:24;16.25;;;11.15;;
34673;SDS011;20879;55.668;37.858;2023-08-12T00:48:56;14.77;;;10.85;;
34673;SDS011;20879;55.668;37.858;2023-08-12T00:51:31;18.20;;;11.27;;
34673;SDS011;20879;55.668;37.858;2023-08-12T00:54:02;18.57;;;10.53;;
34673;SDS011;20879;55.668;37.858;2023-08-12T00:56:50;13.32;;;10.65;;
34673;SDS011;20879;55.668;37.858;2023-08-12T00:59:23;17.75;;;11.15;;
34673;SDS011;20879;55.668;37.858;2023-08-12T01:01:58;17.00;;;10.80;;
34673;SDS011;20879;55.668;37.858;2023-08-12T01:04:30;14.88;;;11.20;;
34673;SDS011;20879;55.668;37.858;2023-08-12T01:07:03;14.38;;;10.90;;
34673;SDS011;20879;55.668;37.858;2023-08-12T01:09:40;16.77;;;11.25;;
34673;SDS011;20879;55.668;37.858;2023-08-12T01:12:12;16.05;;;10.68;;
34673;SDS011;20879;55.668;37.858;2023-08-12T01:14:56;17.80;;;10.23;;
34673;SDS011;20879;55.668;37.858;2023-08-12T01:17:33;13.82;;;10.75;;
34673;SDS011;20879;55.668;37.858;2023-08-12T01:20:06;15.68;;;10.35;;
34673;SDS011;20879;55.668;37.858;2023-08-12T01:22:45;13.77;;;10.63;;
34673;SDS011;20879;55.668;37.858;2023-08-12T01:25:23;12.60;;;10.80;;
34673;SDS011;20879;55.668;37.858;2023-08-12T01:27:55;15.68;;;11.10;;
34673;SDS011;20879;55.668;37.858;2023-08-12T01:32:57;15.63;;;11.30;;
34673;SDS011;20879;55.668;37.858;2023-08-12T01:35:36;15.10;;;10.98;;
34673;SDS011;20879;55.668;37.858;2023-08-12T01:38:23;16.83;;;11.50;;
34673;SDS011;20879;55.668;37.858;2023-08-12T01:41:02;19.25;;;11.38;;
34673;SDS011;20879;55.668;37.858;2023-08-12T01:43:39;15.35;;;11.43;;
34673;SDS011;20879;55.668;37.858;2023-08-12T01:46:16;17.48;;;11.88;;
34673;SDS011;20879;55.668;37.858;2023-08-12T01:48:48;15.18;;;11.30;;
34673;SDS011;20879;55.668;37.858;2023-08-12T01:51:19;16.92;;;11.23;;
34673;SDS011;20879;55.668;37.858;2023-08-12T01:53:56;19.02;;;11.00;;
34673;SDS011;20879;55.668;37.858;2023-08-12T01:56:28;16.23;;;11.27;;
34673;SDS011;20879;55.668;37.858;2023-08-12T01:59:01;15.82;;;11.23;;
34673;SDS011;20879;55.668;37.858;2023-08-12T02:01:37;17.02;;;11.02;;
34673;SDS011;20879;55.668;37.858;2023-08-12T02:04:09;15.77;;;12.20;;
34673;SDS011;20879;55.668;37.858;2023-08-12T02:06:46;20.52;;;12.10;;
34673;SDS011;20879;55.668;37.858;2023-08-12T02:09:17;17.65;;;11.52;;
34673;SDS011;20879;55.668;37.858;2023-08-12T02:11:52;14.38;;;11.82;;
34673;SDS011;20879;55.668;37.858;2023-08-12T02:14:25;13.77;;;12.18;;
34673;SDS011;20879;55.668;37.858;2023-08-12T02:16:54;20.27;;;12.57;;
34673;SDS011;20879;55.668;37.858;2023-08-12T02:19:25;15.63;;;12.32;;
34673;SDS011;20879;55.668;37.858;2023-08-12T02:21:55;17.38;;;12.98;;
34673;SDS011;20879;55.668;37.858;2023-08-12T02:24:25;20.10;;;14.85;;
34673;SDS011;20879;55.668;37.858;2023-08-12T02:26:59;19.70;;;16.77;;
34673;SDS011;20879;55.668;37.858;2023-08-12T02:29:35;21.10;;;18.23;;
34673;SDS011;20879;55.668;37.858;2023-08-12T02:32:08;21.52;;;18.17;;
34673;SDS011;20879;55.668;37.858;2023-08-12T02:34:45;21.55;;;17.00;;
34673;SDS011;20879;55.668;37.858;2023-08-12T02:37:20;22.85;;;16.25;;
34673;SDS011;20879;55.668;37.858;2023-08-12T02:39:52;22.48;;;15.85;;
34673;SDS011;20879;55.668;37.858;2023-08-12T02:42:25;19.15;;;14.68;;
34673;SDS011;20879;55.668;37.858;2023-08-12T02:44:57;21.17;;;14.30;;
34673;SDS011;20879;55.668;37.858;2023-08-12T02:47:31;18.20;;;13.45;;
34673;SDS011;20879;55.668;37.858;2023-08-12T02:50:04;18.60;;;12.35;;
34673;SDS011;20879;55.668;37.858;2023-08-12T02:52:35;19.02;;;12.50;;
34673;SDS011;20879;55.668;37.858;2023-08-12T02:55:08;16.95;;;12.00;;
34673;SDS011;20879;55.668;37.858;2023-08-12T03:00:28;15.02;;;11.57;;
34673;SDS011;20879;55.668;37.858;2023-08-12T03:02:59;15.20;;;11.10;;
34673;SDS011;20879;55.668;37.858;2023-08-12T03:05:32;17.58;;;12.25;;
34673;SDS011;20879;55.668;37.858;2023-08-12T03:08:11;14.82;;;10.77;;
34673;SDS011;20879;55.668;37.858;2023-08-12T03:10:47;16.15;;;10.98;;
34673;SDS011;20879;55.668;37.858;2023-08-12T03:13:26;13.57;;;11.02;;
34673;SDS011;20879;55.668;37.858;2023-08-12T03:16:07;18.10;;;10.68;;
34673;SDS011;20879;55.668;37.858;2023-08-12T03:21:25;14.73;;;10.35;;
34673;SDS011;20879;55.668;37.858;2023-08-12T03:24:04;17.52;;;10.85;;
34673;SDS011;20879;55.668;37.858;2023-08-12T03:26:41;18.27;;;12.93;;
34673;SDS011;20879;55.668;37.858;2023-08-12T03:29:21;19.63;;;12.00;;
34673;SDS011;20879;55.668;37.858;2023-08-12T03:31:56;15.77;;;12.13;;
34673;SDS011;20879;55.668;37.858;2023-08-12T03:34:29;20.08;;;12.77;;
34673;SDS011;20879;55.668;37.858;2023-08-12T03:37:03;13.68;;;11.57;;
34673;SDS011;20879;55.668;37.858;2023-08-12T03:39:33;13.68;;;10.70;;
34673;SDS011;20879;55.668;37.858;2023-08-12T03:42:04;18.73;;;10.13;;
34673;SDS011;20879;55.668;37.858;2023-08-12T03:44:39;22.42;;;10.82;;
34673;SDS011;20879;55.668;37.858;2023-08-12T03:47:09;13.10;;;10.30;;
34673;SDS011;20879;55.668;37.858;2023-08-12T03:49:44;15.50;;;10.32;;
34673;SDS011;20879;55.668;37.858;2023-08-12T03:52:16;17.10;;;11.23;;
34673;SDS011;20879;55.668;37.858;2023-08-12T03:54:57;19.27;;;11.68;;
34673;SDS011;20879;55.668;37.858;2023-08-12T03:57:28;15.43;;;11.70;;
34673;SDS011;20879;55.668;37.858;2023-08-12T04:00:00;16.77;;;11.93;;
34673;SDS011;20879;55.668;37.858;2023-08-12T04:02:40;15.85;;;10.70;;
34673;SDS011;20879;55.668;37.858;2023-08-12T04:05:10;16.23;;;10.40;;
34673;SDS011;20879;55.668;37.858;2023-08-12T04:07:42;14.30;;;10.85;;
34673;SDS011;20879;55.668;37.858;2023-08-12T04:10:17;13.45;;;10.55;;
34673;SDS011;20879;55.668;37.858;2023-08-12T04:12:59;13.20;;;9.55;;
34673;SDS011;20879;55.668;37.858;2023-08-12T04:15:36;14.18;;;10.32;;
34673;SDS011;20879;55.668;37.858;2023-08-12T04:18:06;13.85;;;9.98;;
34673;SDS011;20879;55.668;37.858;2023-08-12T04:20:42;14.02;;;10.25;;
34673;SDS011;20879;55.668;37.858;2023-08-12T04:23:15;14.00;;;10.15;;
34673;SDS011;20879;55.668;37.858;2023-08-12T04:25:47;14.77;;;10.35;;
34673;SDS011;20879;55.668;37.858;2023-08-12T04:28:26;13.70;;;9.88;;
34673;SDS011;20879;55.668;37.858;2023-08-12T04:30:59;16.75;;;9.65;;
34673;SDS011;20879;55.668;37.858;2023-08-12T04:33:38;15.75;;;10.10;;
34673;SDS011;20879;55.668;37.858;2023-08-12T04:36:13;13.80;;;9.63;;
34673;SDS011;20879;55.668;37.858;2023-08-12T04:38:43;14.23;;;9.68;;
34673;SDS011;20879;55.668;37.858;2023-08-12T04:41:14;13.80;;;9.82;;
34673;SDS011;20879;55.668;37.858;2023-08-12T04:43:52;12.85;;;10.25;;
34673;SDS011;20879;55.668;37.858;2023-08-12T04:46:30;13.32;;;9.50;;
34673;SDS011;20879;55.668;37.858;2023-08-12T04:49:17;12.95;;;9.93;;
34673;SDS011;20879;55.668;37.858;2023-08-12T04:51:52;12.15;;;9.57;;
34673;SDS011;20879;55.668;37.858;2023-08-12T04:54:29;12.60;;;9.45;;
34673;SDS011;20879;55.668;37.858;2023-08-12T04:56:58;15.95;;;9.15;;
34673;SDS011;20879;55.668;37.858;2023-08-12T04:59:31;11.68;;;9.88;;
34673;SDS011;20879;55.668;37.858;2023-08-12T05:02:03;14.05;;;10.07;;
34673;SDS011;20879;55.668;37.858;2023-08-12T05:04:35;12.35;;;10.38;;
34673;SDS011;20879;55.668;37.858;2023-08-12T05:09:36;13.82;;;9.70;;
34673;SDS011;20879;55.668;37.858;2023-08-12T05:12:09;12.02;;;9.82;;
34673;SDS011;20879;55.668;37.858;2023-08-12T05:14:39;14.95;;;10.13;;
34673;SDS011;20879;55.668;37.858;2023-08-12T05:17:16;16.27;;;9.82;;
34673;SDS011;20879;55.668;37.858;2023-08-12T05:19:46;12.95;;;10.57;;
34673;SDS011;20879;55.668;37.858;2023-08-12T05:22:16;14.38;;;11.02;;
34673;SDS011;20879;55.668;37.858;2023-08-12T05:24:47;14.60;;;10.40;;
34673;SDS011;20879;55.668;37.858;2023-08-12T05:27:29;16.90;;;11.18;;
34673;SDS011;20879;55.668;37.858;2023-08-12T05:30:10;15.32;;;10.18;;
34673;SDS011;20879;55.668;37.858;2023-08-12T05:32:42;15.38;;;9.95;;
34673;SDS011;20879;55.668;37.858;2023-08-12T05:35:24;16.30;;;10.90;;
34673;SDS011;20879;55.668;37.858;2023-08-12T05:37:55;17.05;;;10.75;;
34673;SDS011;20879;55.668;37.858;2023-08-12T05:40:24;13.60;;;9.77;;
34673;SDS011;20879;55.668;37.858;2023-08-12T05:43:02;18.05;;;10.27;;
34673;SDS011;20879;55.668;37.858;2023-08-12T05:45:39;13.32;;;10.13;;
34673;SDS011;20879;55.668;37.858;2023-08-12T05:48:13;15.85;;;10.30;;
34673;SDS011;20879;55.668;37.858;2023-08-12T05:50:48;14.45;;;9.77;;
34673;SDS011;20879;55.668;37.858;2023-08-12T05:53:19;12.82;;;9.50;;
34673;SDS011;20879;55.668;37.858;2023-08-12T05:55:53;15.32;;;9.70;;
34673;SDS011;20879;55.668;37.858;2023-08-12T05:58:30;15.63;;;9.38;;
34673;SDS011;20879;55.668;37.858;2023-08-12T06:01:04;11.18;;;8.15;;
34673;SDS011;20879;55.668;37.858;2023-08-12T06:03:40;12.20;;;8.32;;
34673;SDS011;20879;55.668;37.858;2023-08-12T06:06:11;12.85;;;8.55;;
34673;SDS011;20879;55.668;37.858;2023-08-12T06:08:42;13.20;;;8.68;;
34673;SDS011;20879;55.668;37.858;2023-08-12T06:11:23;12.32;;;8.25;;
34673;SDS011;20879;55.668;37.858;2023-08-12T06:13:59;13.23;;;8.20;;
34673;SDS011;20879;55.668;37.858;2023-08-12T06:16:38;18.80;;;8.63;;
34673;SDS011;20879;55.668;37.858;2023-08-12T06:19:18;11.88;;;7.95;;
34673;SDS011;20879;55.668;37.858;2023-08-12T06:21:52;14.82;;;7.85;;
34673;SDS011;20879;55.668;37.858;2023-08-12T06:24:23;12.88;;;7.80;;
34673;SDS011;20879;55.668;37.858;2023-08-12T06:26:55;10.55;;;8.05;;
34673;SDS011;20879;55.668;37.858;2023-08-12T06:29:25;11.48;;;8.27;;
34673;SDS011;20879;55.668;37.858;2023-08-12T06:32:13;14.85;;;8.73;;
34673;SDS011;20879;55.668;37.858;2023-08-12T06:34:46;11.75;;;8.70;;
34673;SDS011;20879;55.668;37.858;2023-08-12T06:37:18;14.10;;;8.60;;
34673;SDS011;20879;55.668;37.858;2023-08-12T06:39:57;16.08;;;9.57;;
34673;SDS011;20879;55.668;37.858;2023-08-12T06:42:33;17.55;;;9.18;;
34673;SDS011;20879;55.668;37.858;2023-08-12T06:45:04;14.65;;;9.25;;
34673;SDS011;20879;55.668;37.858;2023-08-12T06:47:42;14.73;;;9.30;;
34673;SDS011;20879;55.668;37.858;2023-08-12T06:50:15;13.70;;;8.77;;
34673;SDS011;20879;55.668;37.858;2023-08-12T06:52:45;16.05;;;8.93;;
34673;SDS011;20879;55.668;37.858;2023-08-12T06:55:14;12.45;;;8.00;;
34673;SDS011;20879;55.668;37.858;2023-08-12T06:57:48;11.70;;;8.10;;
34673;SDS011;20879;55.668;37.858;2023-08-12T07:00:20;13.95;;;8.63;;
34673;SDS011;20879;55.668;37.858;2023-08-12T07:02:51;15.02;;;8.50;;
34673;SDS011;20879;55.668;37.858;2023-08-12T07:05:34;17.77;;;8.95;;
34673;SDS011;20879;55.668;37.858;2023-08-12T07:08:11;16.38;;;8.93;;
34673;SDS011;20879;55.668;37.858;2023-08-12T07:10:41;10.82;;;8.40;;
34673;SDS011;20879;55.668;37.858;2023-08-12T07:13:11;12.85;;;8.32;;
34673;SDS011;20879;55.668;37.858;2023-08-12T07:15:42;11.15;;;8.35;;
34673;SDS011;20879;55.668;37.858;2023-08-12T07:18:19;13.88;;;9.10;;
34673;SDS011;20879;55.668;37.858;2023-08-12T07:20:56;12.38;;;8.25;;
34673;SDS011;20879;55.668;37.858;2023-08-12T07:23:26;12.68;;;8.73;;
34673;SDS011;20879;55.668;37.858;2023-08-12T07:26:00;11.40;;;8.02;;
34673;SDS011;20879;55.668;37.858;2023-08-12T07:28:34;11.10;;;8.05;;
34673;SDS011;20879;55.668;37.858;2023-08-12T07:31:08;11.15;;;8.23;;
34673;SDS011;20879;55.668;37.858;2023-08-12T07:36:18;11.80;;;8.35;;
34673;SDS011;20879;55.668;37.858;2023-08-12T07:38:57;14.02;;;8.57;;
34673;SDS011;20879;55.668;37.858;2023-08-12T07:41:33;10.23;;;8.35;;
34673;SDS011;20879;55.668;37.858;2023-08-12T07:44:09;13.40;;;8.68;;
34673;SDS011;20879;55.668;37.858;2023-08-12T07:46:45;13.30;;;9.38;;
34673;SDS011;20879;55.668;37.858;2023-08-12T07:49:16;13.52;;;8.70;;
34673;SDS011;20879;55.668;37.858;2023-08-12T07:51:49;10.73;;;8.32;;
34673;SDS011;20879;55.668;37.858;2023-08-12T07:54:25;9.82;;;8.30;;
34673;SDS011;20879;55.668;37.858;2023-08-12T07:56:55;13.10;;;8.68;;
34673;SDS011;20879;55.668;37.858;2023-08-12T07:59:27;13.23;;;9.02;;
34673;SDS011;20879;55.668;37.858;2023-08-12T08:01:58;13.93;;;9.38;;
34673;SDS011;20879;55.668;37.858;2023-08-12T08:04:37;12.65;;;8.68;;
34673;SDS011;20879;55.668;37.858;2023-08-12T08:07:09;15.75;;;9.60;;
34673;SDS011;20879;55.668;37.858;2023-08-12T08:09:39;12.55;;;9.00;;
34673;SDS011;20879;55.668;37.858;2023-08-12T08:12:10;12.82;;;9.93;;
34673;SDS011;20879;55.668;37.858;2023-08-12T08:14:48;14.27;;;9.32;;
34673;SDS011;20879;55.668;37.858;2023-08-12T08:17:17;11.82;;;9.30;;
34673;SDS011;20879;55.668;37.858;2023-08-12T08:19:54;12.30;;;8.90;;
34673;SDS011;20879;55.668;37.858;2023-08-12T08:22:33;13.60;;;8.93;;
34673;SDS011;20879;55.668;37.858;2023-08-12T08:25:05;13.60;;;9.80;;
34673;SDS011;20879;55.668;37.858;2023-08-12T08:27:40;15.55;;;10.20;;
34673;SDS011;20879;55.668;37.858;2023-08-12T08:30:12;17.10;;;10.00;;
34673;SDS011;20879;55.668;37.858;2023-08-12T08:32:51;15.65;;;9.63;;
34673;SDS011;20879;55.668;37.858;2023-08-12T08:35:21;13.75;;;9.80;;
34673;SDS011;20879;55.668;37.858;2023-08-12T08:37:53;11.73;;;9.65;;
34673;SDS011;20879;55.668;37.858;2023-08-12T08:40:24;13.63;;;10.18;;
34673;SDS011;20879;55.668;37.858;2023-08-12T08:42:55;16.30;;;10.10;;
34673;SDS011;20879;55.668;37.858;2023-08-12T08:45:41;16.65;;;10.48;;
34673;SDS011;20879;55.668;37.858;2023-08-12T08:48:23;17.38;;;10.15;;
34673;SDS011;20879;55.668;37.858;2023-08-12T08:51:05;16.95;;;10.40;;
34673;SDS011;20879;55.668;37.858;2023-08-12T08:53:54;14.40;;;10.32;;
34673;SDS011;20879;55.668;37.858;2023-08-12T08:56:35;16.63;;;10.00;;
34673;SDS011;20879;55.668;37.858;2023-08-12T08:59:24;12.68;;;9.88;;
34673;SDS011;20879;55.668;37.858;2023-08-12T09:01:55;14.37;;;9.40;;
34673;SDS011;20879;55.668;37.858;2023-08-12T09:04:26;15.25;;;10.15;;
34673;SDS011;20879;55.668;37.858;2023-08-12T09:07:01;11.48;;;9.73;;
34673;SDS011;20879;55.668;37.858;2023-08-12T09:09:39;10.75;;;9.60;;
34673;SDS011;20879;55.668;37.858;2023-08-12T09:12:17;14.30;;;10.32;;
34673;SDS011;20879;55.668;37.858;2023-08-12T09:14:55;17.05;;;9.68;;
34673;SDS011;20879;55.668;37.858;2023-08-12T09:17:26;14.15;;;9.48;;
34673;SDS011;20879;55.668;37.858;2023-08-12T09:20:01;15.82;;;9.52;;
34673;SDS011;20879;55.668;37.858;2023-08-12T09:22:35;12.80;;;9.80;;
34673;SDS011;20879;55.668;37.858;2023-08-12T09:25:08;17.02;;;10.32;;
34673;SDS011;20879;55.668;37.858;2023-08-12T09:27:45;13.48;;;10.50;;
34673;SDS011;20879;55.668;37.858;2023-08-12T09:30:23;15.88;;;10.18;;
34673;SDS011;20879;55.668;37.858;2023-08-12T09:33:04;14.32;;;10.32;;
34673;SDS011;20879;55.668;37.858;2023-08-12T09:35:39;17.65;;;10.40;;
34673;SDS011;20879;55.668;37.858;2023-08-12T09:38:11;12.45;;;9.93;;
34673;SDS011;20879;55.668;37.858;2023-08-12T09:40:48;15.85;;;11.18;;
34673;SDS011;20879;55.668;37.858;2023-08-12T09:43:32;18.95;;;10.90;;
34673;SDS011;20879;55.668;37.858;2023-08-12T09:46:04;15.07;;;10.43;;
34673;SDS011;20879;55.668;37.858;2023-08-12T09:48:33;14.15;;;10.18;;
34673;SDS011;20879;55.668;37.858;2023-08-12T09:51:03;12.93;;;9.93;;
34673;SDS011;20879;55.668;37.858;2023-08-12T09:53:35;15.70;;;11.35;;
34673;SDS011;20879;55.668;37.858;2023-08-12T09:56:10;14.52;;;10.60;;
34673;SDS011;20879;55.668;37.858;2023-08-12T09:58:48;13.85;;;10.55;;
34673;SDS011;20879;55.668;37.858;2023-08-12T10:01:19;15.73;;;11.30;;
34673;SDS011;20879;55.668;37.858;2023-08-12T10:03:50;16.13;;;11.30;;
34673;SDS011;20879;55.668;37.858;2023-08-12T10:06:20;15.57;;;10.60;;
34673;SDS011;20879;55.668;37.858;2023-08-12T10:11:33;15.82;;;10.90;;
34673;SDS011;20879;55.668;37.858;2023-08-12T10:14:14;15.10;;;10.52;;
34673;SDS011;20879;55.668;37.858;2023-08-12T10:16:48;14.68;;;10.48;;
34673;SDS011;20879;55.668;37.858;2023-08-12T10:19:37;14.02;;;11.02;;
34673;SDS011;20879;55.668;37.858;2023-08-12T10:22:13;12.82;;;10.63;;
34673;SDS011;20879;55.668;37.858;2023-08-12T10:24:45;15.65;;;10.98;;
34673;SDS011;20879;55.668;37.858;2023-08-12T10:27:19;14.18;;;11.60;;
34673;SDS011;20879;55.668;37.858;2023-08-12T10:29:50;15.35;;;11.40;;
34673;SDS011;20879;55.668;37.858;2023-08-12T10:32:28;20.90;;;14.95;;
34673;SDS011;20879;55.668;37.858;2023-08-12T10:34:59;13.35;;;11.70;;
34673;SDS011;20879;55.668;37.858;2023-08-12T10:37:34;18.98;;;14.82;;
34673;SDS011;20879;55.668;37.858;2023-08-12T10:40:19;17.80;;;12.13;;
34673;SDS011;20879;55.668;37.858;2023-08-12T10:42:52;13.55;;;12.00;;
34673;SDS011;20879;55.668;37.858;2023-08-12T10:45:22;14.82;;;12.90;;
34673;SDS011;20879;55.668;37.858;2023-08-12T10:47:54;20.90;;;14.10;;
34673;SDS011;20879;55.668;37.858;2023-08-12T10:50:52;19.92;;;14.77;;
34673;SDS011;20879;55.668;37.858;2023-08-12T10:53:24;15.95;;;14.25;;
34673;SDS011;20879;55.668;37.858;2023-08-12T10:55:59;17.25;;;13.27;;
34673;SDS011;20879;55.668;37.858;2023-08-12T10:58:45;18.63;;;12.93;;
34673;SDS011;20879;55.668;37.858;2023-08-12T11:01:17;16.30;;;11.88;;
34673;SDS011;20879;55.668;37.858;2023-08-12T11:03:47;17.63;;;11.90;;
34673;SDS011;20879;55.668;37.858;2023-08-12T11:06:28;14.30;;;12.48;;
34673;SDS011;20879;55.668;37.858;2023-08-12T11:08:58;17.80;;;12.60;;
34673;SDS011;20879;55.668;37.858;2023-08-12T11:14:13;16.38;;;12.25;;
34673;SDS011;20879;55.668;37.858;2023-08-12T11:16:49;17.17;;;12.88;;
34673;SDS011;20879;55.668;37.858;2023-08-12T11:19:31;16.70;;;12.35;;
34673;SDS011;20879;55.668;37.858;2023-08-12T11:22:02;15.32;;;12.00;;
34673;SDS011;20879;55.668;37.858;2023-08-12T11:24:37;17.70;;;11.43;;
34673;SDS011;20879;55.668;37.858;2023-08-12T11:27:14;16.13;;;11.95;;
34673;SDS011;20879;55.668;37.858;2023-08-12T11:29:48;16.90;;;11.60;;
34673;SDS011;20879;55.668;37.858;2023-08-12T11:32:26;15.85;;;11.73;;
34673;SDS011;20879;55.668;37.858;2023-08-12T11:34:57;18.45;;;12.77;;
34673;SDS011;20879;55.668;37.858;2023-08-12T11:37:32;17.10;;;12.63;;
34673;SDS011;20879;55.668;37.858;2023-08-12T11:40:12;22.17;;;12.82;;
34673;SDS011;20879;55.668;37.858;2023-08-12T11:42:57;16.30;;;12.50;;
34673;SDS011;20879;55.668;37.858;2023-08-12T11:45:32;17.00;;;11.88;;
34673;SDS011;20879;55.668;37.858;2023-08-12T11:48:04;15.50;;;12.35;;
34673;SDS011;20879;55.668;37.858;2023-08-12T11:50:34;18.02;;;12.88;;
34673;SDS011;20879;55.668;37.858;2023-08-12T11:53:04;17.55;;;12.10;;
34673;SDS011;20879;55.668;37.858;2023-08-12T11:55:38;26.63;;;14.52;;
34673;SDS011;20879;55.668;37.858;2023-08-12T11:58:16;23.00;;;13.88;;
34673;SDS011;20879;55.668;37.858;2023-08-12T12:00:49;20.92;;;14.15;;
34673;SDS011;20879;55.668;37.858;2023-08-12T12:03:19;21.63;;;14.23;;
34673;SDS011;20879;55.668;37.858;2023-08-12T12:05:49;19.35;;;14.68;;
34673;SDS011;20879;55.668;37.858;2023-08-12T12:08:30;16.98;;;13.70;;
34673;SDS011;20879;55.668;37.858;2023-08-12T12:11:03;18.48;;;13.57;;
34673;SDS011;20879;55.668;37.858;2023-08-12T12:13:37;20.38;;;14.00;;
34673;SDS011;20879;55.668;37.858;2023-08-12T12:16:11;22.73;;;13.93;;
34673;SDS011;20879;55.668;37.858;2023-08-12T12:18:43;24.05;;;15.02;;
34673;SDS011;20879;55.668;37.858;2023-08-12T12:21:20;26.42;;;16.27;;
34673;SDS011;20879;55.668;37.858;2023-08-12T12:23:53;20.95;;;15.93;;
34673;SDS011;20879;55.668;37.858;2023-08-12T12:26:28;26.95;;;18.08;;
34673;SDS011;20879;55.668;37.858;2023-08-12T12:28:58;21.60;;;16.52;;
34673;SDS011;20879;55.668;37.858;2023-08-12T12:31:35;26.05;;;17.90;;
34673;SDS011;20879;55.668;37.858;2023-08-12T12:34:07;19.65;;;17.02;;
34673;SDS011;20879;55.668;37.858;2023-08-12T12:36:46;19.13;;;15.18;;
34673;SDS011;20879;55.668;37.858;2023-08-12T12:39:17;17.83;;;13.60;;
34673;SDS011;20879;55.668;37.858;2023-08-12T12:41:48;20.85;;;13.98;;
34673;SDS011;20879;55.668;37.858;2023-08-12T12:49:49;18.13;;;11.60;;
34673;SDS011;20879;55.668;37.858;2023-08-12T12:52:23;20.30;;;12.85;;
34673;SDS011;20879;55.668;37.858;2023-08-12T12:55:01;18.83;;;13.35;;
34673;SDS011;20879;55.668;37.858;2023-08-12T12:57:37;15.77;;;12.52;;
34673;SDS011;20879;55.668;37.858;2023-08-12T13:00:10;18.38;;;12.63;;
34673;SDS011;20879;55.668;37.858;2023-08-12T13:02:45;21.25;;;15.30;;
34673;SDS011;20879;55.668;37.858;2023-08-12T13:05:19;20.20;;;16.25;;
34673;SDS011;20879;55.668;37.858;2023-08-12T13:07:54;21.25;;;15.95;;
34673;SDS011;20879;55.668;37.858;2023-08-12T13:10:28;24.77;;;17.63;;
34673;SDS011;20879;55.668;37.858;2023-08-12T13:13:00;24.05;;;18.88;;
34673;SDS011;20879;55.668;37.858;2023-08-12T13:15:33;22.35;;;18.17;;
34673;SDS011;20879;55.668;37.858;2023-08-12T13:18:05;22.30;;;17.55;;
34673;SDS011;20879;55.668;37.858;2023-08-12T13:20:42;22.67;;;18.73;;
34673;SDS011;20879;55.668;37.858;2023-08-12T13:23:16;17.60;;;14.30;;
34673;SDS011;20879;55.668;37.858;2023-08-12T13:25:46;20.10;;;14.70;;
34673;SDS011;20879;55.668;37.858;2023-08-12T13:28:22;22.35;;;14.55;;
34673;SDS011;20879;55.668;37.858;2023-08-12T13:31:00;18.58;;;13.55;;
34673;SDS011;20879;55.668;37.858;2023-08-12T13:33:31;17.00;;;13.45;;
34673;SDS011;20879;55.668;37.858;2023-08-12T13:36:02;16.33;;;12.07;;
34673;SDS011;20879;55.668;37.858;2023-08-12T13:41:01;14.57;;;12.02;;
34673;SDS011;20879;55.668;37.858;2023-08-12T13:43:35;16.63;;;13.63;;
34673;SDS011;20879;55.668;37.858;2023-08-12T13:46:05;18.30;;;14.20;;
34673;SDS011;20879;55.668;37.858;2023-08-12T13:48:37;19.83;;;15.27;;
34673;SDS011;20879;55.668;37.858;2023-08-12T13:51:10;19.60;;;13.60;;
34673;SDS011;20879;55.668;37.858;2023-08-12T13:53:41;16.55;;;13.48;;
34673;SDS011;20879;55.668;37.858;2023-08-12T13:56:19;19.00;;;14.43;;
34673;SDS011;20879;55.668;37.858;2023-08-12T13:58:52;17.90;;;15.93;;
34673;SDS011;20879;55.668;37.858;2023-08-12T14:01:22;17.42;;;14.85;;
34673;SDS011;20879;55.668;37.858;2023-08-12T14:03:52;17.52;;;15.00;;
34673;SDS011;20879;55.668;37.858;2023-08-12T14:06:26;16.58;;;12.50;;
34673;SDS011;20879;55.668;37.858;2023-08-12T14:08:56;13.68;;;11.07;;
34673;SDS011;20879;55.668;37.858;2023-08-12T14:11:26;16.35;;;11.55;;
34673;SDS011;20879;55.668;37.858;2023-08-12T14:13:57;14.32;;;10.80;;
34673;SDS011;20879;55.668;37.858;2023-08-12T14:16:29;15.70;;;11.43;;
34673;SDS011;20879;55.668;37.858;2023-08-12T14:19:00;13.50;;;11.05;;
34673;SDS011;20879;55.668;37.858;2023-08-12T14:21:33;15.07;;;11.23;;
34673;SDS011;20879;55.668;37.858;2023-08-12T14:24:03;14.38;;;10.68;;
34673;SDS011;20879;55.668;37.858;2023-08-12T14:26:35;13.50;;;10.70;;
34673;SDS011;20879;55.668;37.858;2023-08-12T14:29:10;17.25;;;11.25;;
34673;SDS011;20879;55.668;37.858;2023-08-12T14:31:47;15.35;;;11.23;;
34673;SDS011;20879;55.668;37.858;2023-08-12T14:34:19;15.38;;;11.10;;
34673;SDS011;20879;55.668;37.858;2023-08-12T14:36:52;16.83;;;11.63;;
34673;SDS011;20879;55.668;37.858;2023-08-12T14:39:24;16.83;;;11.77;;
34673;SDS011;20879;55.668;37.858;2023-08-12T14:41:55;15.27;;;12.43;;
34673;SDS011;20879;55.668;37.858;2023-08-12T14:44:28;15.52;;;11.60;;
34673;SDS011;20879;55.668;37.858;2023-08-12T14:47:09;15.85;;;11.55;;
34673;SDS011;20879;55.668;37.858;2023-08-12T14:49:40;16.88;;;12.45;;
34673;SDS011;20879;55.668;37.858;2023-08-12T14:54:50;15.07;;;11.70;;
34673;SDS011;20879;55.668;37.858;2023-08-12T14:57:26;16.88;;;11.35;;
34673;SDS011;20879;55.668;37.858;2023-08-12T15:00:00;11.50;;;9.27;;
34673;SDS011;20879;55.668;37.858;2023-08-12T15:02:34;10.25;;;8.45;;
34673;SDS011;20879;55.668;37.858;2023-08-12T15:05:11;9.38;;;8.32;;
34673;SDS011;20879;55.668;37.858;2023-08-12T15:07:43;12.10;;;8.60;;
34673;SDS011;20879;55.668;37.858;2023-08-12T15:10:16;14.32;;;7.35;;
34673;SDS011;20879;55.668;37.858;2023-08-12T15:12:52;11.05;;;7.55;;
34673;SDS011;20879;55.668;37.858;2023-08-12T15:15:22;11.70;;;7.70;;
34673;SDS011;20879;55.668;37.858;2023-08-12T15:17:58;11.07;;;7.90;;
34673;SDS011;20879;55.668;37.858;2023-08-12T15:20:28;9.30;;;7.60;;
34673;SDS011;20879;55.668;37.858;2023-08-12T15:23:00;11.35;;;8.45;;